Time;durP1;ratioP1;P1;durP2;ratioP2;P2;SDS_P1;SDS_P2;PMS_P1;PMS_P2;Temp;Humidity;BMP_temperature;BMP_pressure;BME280_temperature;BME280_humidity;BME280_pressure;Samples;Min_cycle;Max_cycle;Signal;HPM_P1;HPM_P2
2022/07/19 00:00:07;;;;;;;9.20;4.25;;;21.90;96.20;;;;;;5107010;28;20047;-66
2022/07/19 00:02:33;;;;;;;8.52;4.07;;;21.90;96.40;;;;;;5105384;28;20044;-66
2022/07/19 00:04:58;;;;;;;6.55;4.07;;;21.90;96.50;;;;;;5100839;28;20062;-65
2022/07/19 00:07:24;;;;;;;10.85;4.05;;;21.80;96.70;;;;;;5097567;28;20059;-66
2022/07/19 00:09:49;;;;;;;7.55;4.40;;;21.80;96.80;;;;;;5104490;28;20036;-66
2022/07/19 00:12:15;;;;;;;6.85;3.70;;;21.80;97.10;;;;;;5104872;28;20092;-66
2022/07/19 00:14:41;;;;;;;8.32;3.97;;;21.70;97.10;;;;;;5097173;28;20137;-66
2022/07/19 00:17:06;;;;;;;8.88;4.57;;;21.70;97.20;;;;;;5089044;28;20123;-65
2022/07/19 00:19:32;;;;;;;7.15;4.00;;;21.60;97.40;;;;;;5103147;28;20042;-66
2022/07/19 00:21:58;;;;;;;7.97;4.70;;;21.70;97.50;;;;;;5104759;28;20054;-65
2022/07/19 00:24:23;;;;;;;7.38;4.20;;;21.60;97.60;;;;;;5109975;28;20093;-66
2022/07/19 00:26:49;;;;;;;7.85;4.47;;;21.60;97.70;;;;;;5104756;28;20123;-66
2022/07/19 00:29:14;;;;;;;6.30;4.50;;;21.50;97.80;;;;;;5102977;28;20040;-65
2022/07/19 00:31:40;;;;;;;6.70;4.10;;;21.50;97.90;;;;;;5101276;28;20055;-66
2022/07/19 00:34:06;;;;;;;6.93;4.65;;;21.50;98.00;;;;;;5105452;28;20031;-66
2022/07/19 00:36:31;;;;;;;6.60;4.50;;;21.40;98.10;;;;;;5100671;28;20134;-65
2022/07/19 00:38:57;;;;;;;6.60;4.35;;;21.40;98.20;;;;;;5101527;28;20505;-65
2022/07/19 00:41:22;;;;;;;8.73;4.20;;;21.40;98.30;;;;;;5094191;28;20051;-65
2022/07/19 00:43:50;;;;;;;8.23;4.55;;;21.30;98.50;;;;;;5097419;28;20119;-65
2022/07/19 00:46:21;;;;;;;8.63;4.63;;;21.20;98.60;;;;;;5102446;28;20454;-65
2022/07/19 00:48:48;;;;;;;7.45;4.10;;;21.20;98.80;;;;;;5106636;28;20054;-65
2022/07/19 00:51:15;;;;;;;7.78;4.65;;;21.20;99.10;;;;;;5102763;28;20035;-65
2022/07/19 00:53:41;;;;;;;8.32;4.40;;;21.20;99.40;;;;;;5102419;28;20066;-66
2022/07/19 00:56:08;;;;;;;7.38;4.22;;;21.10;99.50;;;;;;5104333;28;20122;-65
2022/07/19 00:58:36;;;;;;;7.88;4.95;;;21.10;99.70;;;;;;5100329;28;20036;-65
2022/07/19 01:01:03;;;;;;;10.93;4.60;;;21.10;99.80;;;;;;5102055;28;20036;-66
2022/07/19 01:03:28;;;;;;;8.88;4.43;;;21.00;99.90;;;;;;5102636;28;20181;-65
2022/07/19 01:05:54;;;;;;;9.15;4.47;;;21.00;99.90;;;;;;5101482;28;20172;-66
2022/07/19 01:08:20;;;;;;;9.57;5.13;;;21.00;99.90;;;;;;5103213;28;20161;-66
2022/07/19 01:10:45;;;;;;;8.60;4.72;;;20.90;99.90;;;;;;5104640;28;20047;-65
2022/07/19 01:13:14;;;;;;;7.65;4.53;;;20.90;99.90;;;;;;5098556;28;20455;-65
2022/07/19 01:15:41;;;;;;;8.60;4.82;;;20.90;99.90;;;;;;5100665;28;20066;-65
2022/07/19 01:18:08;;;;;;;8.43;4.68;;;20.80;99.90;;;;;;5106367;28;20088;-65
2022/07/19 01:20:33;;;;;;;7.80;5.72;;;20.80;99.90;;;;;;5105366;28;20475;-66
2022/07/19 01:22:59;;;;;;;10.27;5.45;;;20.80;99.90;;;;;;5107364;28;20164;-66
2022/07/19 01:25:27;;;;;;;8.52;5.35;;;20.70;99.90;;;;;;5104401;28;20407;-66
2022/07/19 01:27:53;;;;;;;7.57;5.35;;;20.70;99.90;;;;;;5110714;28;20043;-65
2022/07/19 01:30:21;;;;;;;10.63;5.90;;;20.70;99.90;;;;;;5105541;28;20395;-65
2022/07/19 01:32:48;;;;;;;9.40;5.60;;;20.60;99.90;;;;;;5107527;28;20443;-65
2022/07/19 01:35:14;;;;;;;7.95;5.20;;;20.60;99.90;;;;;;5103843;28;20035;-66
2022/07/19 01:37:40;;;;;;;6.85;4.80;;;20.50;99.90;;;;;;5103360;28;20036;-66
2022/07/19 01:40:07;;;;;;;8.27;4.82;;;20.50;99.90;;;;;;5106435;28;20552;-66
2022/07/19 01:42:33;;;;;;;7.20;4.60;;;20.50;99.90;;;;;;5102215;28;20047;-66
2022/07/19 01:44:59;;;;;;;8.65;5.10;;;20.50;99.90;;;;;;5107607;28;20042;-65
2022/07/19 01:47:24;;;;;;;7.18;4.60;;;20.40;99.90;;;;;;5108997;28;20493;-65
2022/07/19 01:49:50;;;;;;;9.55;5.28;;;20.40;99.90;;;;;;5109794;28;20071;-65
2022/07/19 01:52:16;;;;;;;8.15;5.47;;;20.40;99.90;;;;;;5104074;28;20032;-66
2022/07/19 01:54:41;;;;;;;7.90;4.97;;;20.30;99.90;;;;;;5109743;28;20047;-65
2022/07/19 01:57:07;;;;;;;8.05;5.32;;;20.30;99.90;;;;;;5107245;28;20146;-65
2022/07/19 01:59:35;;;;;;;8.38;5.32;;;20.20;99.90;;;;;;5111771;28;20224;-65
2022/07/19 02:02:00;;;;;;;7.45;5.38;;;20.20;99.90;;;;;;5106539;28;20391;-66
2022/07/19 02:04:26;;;;;;;8.00;5.50;;;20.20;99.90;;;;;;5106141;28;20074;-65
2022/07/19 02:06:51;;;;;;;11.07;5.20;;;20.20;99.90;;;;;;5104578;28;20113;-65
2022/07/19 02:09:17;;;;;;;8.02;5.60;;;20.10;99.90;;;;;;5110660;28;20139;-65
2022/07/19 02:11:42;;;;;;;7.13;5.03;;;20.10;99.90;;;;;;5108601;28;20075;-65
2022/07/19 02:14:09;;;;;;;8.32;5.40;;;20.00;99.90;;;;;;5110226;28;20043;-66
2022/07/19 02:16:36;;;;;;;7.20;4.70;;;20.00;99.90;;;;;;5097465;28;20103;-65
2022/07/19 02:19:03;;;;;;;8.52;5.03;;;20.00;99.90;;;;;;5102685;28;20044;-65
2022/07/19 02:21:29;;;;;;;7.63;5.43;;;19.90;99.90;;;;;;5103232;28;20490;-65
2022/07/19 02:23:54;;;;;;;8.18;5.22;;;19.90;99.90;;;;;;5108682;28;20054;-66
2022/07/19 02:26:20;;;;;;;6.85;4.70;;;19.90;99.90;;;;;;5108564;28;20040;-65
2022/07/19 02:28:46;;;;;;;8.18;5.40;;;19.90;99.90;;;;;;5110219;28;20032;-65
2022/07/19 02:31:12;;;;;;;8.52;5.20;;;19.80;99.90;;;;;;5106812;28;20133;-65
2022/07/19 02:33:37;;;;;;;7.25;5.28;;;19.80;99.90;;;;;;5105769;28;20473;-65
2022/07/19 02:36:03;;;;;;;8.05;5.45;;;19.70;99.90;;;;;;5103888;28;20088;-66
2022/07/19 02:38:30;;;;;;;8.18;5.60;;;19.70;99.90;;;;;;5108306;28;20075;-66
2022/07/19 02:40:55;;;;;;;8.75;5.80;;;19.70;99.90;;;;;;5105437;28;20153;-65
2022/07/19 02:43:21;;;;;;;8.27;4.97;;;19.70;99.90;;;;;;5102494;28;20139;-65
2022/07/19 02:45:46;;;;;;;8.93;5.70;;;19.60;99.90;;;;;;5096059;27;20036;-66
2022/07/19 02:48:12;;;;;;;9.20;6.25;;;19.60;99.90;;;;;;5109439;28;20036;-65
2022/07/19 02:50:37;;;;;;;10.68;6.35;;;19.60;99.90;;;;;;5108319;28;20077;-65
2022/07/19 02:53:03;;;;;;;7.95;5.53;;;19.60;99.90;;;;;;5107856;28;20043;-65
2022/07/19 02:55:29;;;;;;;8.82;5.95;;;19.60;99.90;;;;;;5110156;28;20035;-65
2022/07/19 02:57:54;;;;;;;8.00;5.63;;;19.50;99.90;;;;;;5106369;28;20040;-65
2022/07/19 03:00:20;;;;;;;8.48;6.15;;;19.50;99.90;;;;;;5108707;28;20308;-65
2022/07/19 03:02:46;;;;;;;12.85;6.53;;;19.50;99.90;;;;;;5108182;28;20036;-65
2022/07/19 03:05:11;;;;;;;7.65;5.68;;;19.40;99.90;;;;;;5105889;28;20123;-65
2022/07/19 03:07:37;;;;;;;10.20;6.60;;;19.40;99.90;;;;;;5109530;28;20044;-65
2022/07/19 03:10:03;;;;;;;9.88;6.57;;;19.40;99.90;;;;;;5109803;28;20470;-65
2022/07/19 03:12:29;;;;;;;9.98;6.53;;;19.30;99.90;;;;;;5106204;28;20039;-65
2022/07/19 03:14:54;;;;;;;10.60;6.80;;;19.40;99.90;;;;;;5097415;28;20039;-65
2022/07/19 03:17:20;;;;;;;10.05;6.70;;;19.30;99.90;;;;;;5103088;28;20551;-65
2022/07/19 03:19:46;;;;;;;10.50;6.45;;;19.30;99.90;;;;;;5108572;28;20040;-65
2022/07/19 03:22:12;;;;;;;11.23;6.43;;;19.20;99.90;;;;;;5108662;28;20173;-65
2022/07/19 03:24:38;;;;;;;9.73;6.65;;;19.20;99.90;;;;;;5101648;28;20059;-65
2022/07/19 03:27:03;;;;;;;10.77;6.78;;;19.20;99.90;;;;;;5098164;28;20372;-65
2022/07/19 03:29:29;;;;;;;10.27;7.22;;;19.20;99.90;;;;;;5096641;28;20036;-65
2022/07/19 03:31:54;;;;;;;17.48;7.13;;;19.20;99.90;;;;;;5093189;28;20108;-65
2022/07/19 03:34:20;;;;;;;9.18;7.20;;;19.20;99.90;;;;;;5101542;28;20043;-65
2022/07/19 03:36:46;;;;;;;9.73;6.75;;;19.20;99.90;;;;;;5098950;28;20501;-65
2022/07/19 03:39:11;;;;;;;9.40;6.50;;;19.10;99.90;;;;;;5108778;28;20315;-65
2022/07/19 03:41:37;;;;;;;10.93;6.55;;;19.10;99.90;;;;;;5100677;28;20126;-65
2022/07/19 03:44:02;;;;;;;10.57;6.78;;;19.10;99.90;;;;;;5108285;28;20160;-65
2022/07/19 03:46:29;;;;;;;8.57;6.43;;;19.10;99.90;;;;;;5091895;28;20080;-65
2022/07/19 03:48:55;;;;;;;9.95;6.60;;;19.10;99.90;;;;;;5099483;28;20050;-65
2022/07/19 03:51:22;;;;;;;9.80;6.40;;;19.10;99.90;;;;;;5106507;28;20375;-65
2022/07/19 03:53:48;;;;;;;9.02;7.43;;;19.10;99.90;;;;;;5099262;28;20428;-65
2022/07/19 03:56:14;;;;;;;9.00;6.32;;;19.10;99.90;;;;;;5094752;28;20096;-65
2022/07/19 03:58:40;;;;;;;10.13;6.95;;;19.00;99.90;;;;;;5104981;28;20031;-65
2022/07/19 04:01:06;;;;;;;9.52;6.85;;;19.00;99.90;;;;;;5107898;28;20039;-65
2022/07/19 04:03:39;;;;;;;10.90;7.10;;;19.00;99.90;;;;;;5107813;28;20047;-65
2022/07/19 04:06:10;;;;;;;12.07;7.57;;;19.00;99.90;;;;;;5102814;28;20043;-65
2022/07/19 04:08:35;;;;;;;10.77;7.30;;;19.00;99.90;;;;;;5101793;28;20044;-65
2022/07/19 04:11:02;;;;;;;10.68;6.97;;;19.10;99.90;;;;;;5090010;28;20043;-65
2022/07/19 04:13:28;;;;;;;10.80;7.63;;;19.00;99.90;;;;;;5109443;28;20088;-65
2022/07/19 04:15:54;;;;;;;12.85;7.63;;;19.00;99.90;;;;;;5103711;28;20111;-65
2022/07/19 04:18:19;;;;;;;10.15;7.05;;;19.10;99.90;;;;;;5106318;28;20043;-65
2022/07/19 04:20:45;;;;;;;10.40;7.47;;;19.10;99.90;;;;;;5099902;28;20070;-65
2022/07/19 04:23:10;;;;;;;9.38;7.10;;;19.10;99.90;;;;;;5106868;28;20348;-65
2022/07/19 04:25:36;;;;;;;13.90;7.72;;;19.10;99.90;;;;;;5106333;28;20063;-65
2022/07/19 04:28:02;;;;;;;10.07;7.25;;;19.20;99.90;;;;;;5106831;28;20066;-65
2022/07/19 04:30:29;;;;;;;11.02;7.90;;;19.20;99.90;;;;;;5105124;28;20051;-65
2022/07/19 04:32:54;;;;;;;10.10;7.40;;;19.20;99.90;;;;;;5099155;28;20059;-65
2022/07/19 04:35:20;;;;;;;10.38;7.80;;;19.30;99.90;;;;;;5100221;28;20039;-65
2022/07/19 04:37:46;;;;;;;12.65;8.13;;;19.30;99.90;;;;;;5109041;28;20040;-65
2022/07/19 04:40:12;;;;;;;11.77;7.95;;;19.40;99.90;;;;;;5103449;28;20883;-65
2022/07/19 04:42:38;;;;;;;11.80;7.40;;;19.40;99.90;;;;;;5105814;28;20590;-65
2022/07/19 04:45:05;;;;;;;11.00;7.53;;;19.50;99.90;;;;;;5103355;28;20102;-65
2022/07/19 04:47:31;;;;;;;9.85;7.28;;;19.60;99.90;;;;;;5105617;28;20071;-65
2022/07/19 04:49:56;;;;;;;10.48;7.70;;;19.70;99.90;;;;;;5106115;28;20082;-65
2022/07/19 04:52:22;;;;;;;10.10;7.32;;;19.80;99.90;;;;;;5104986;28;20485;-65
2022/07/19 04:54:47;;;;;;;11.98;7.90;;;19.80;99.90;;;;;;5106224;28;20126;-65
2022/07/19 04:57:13;;;;;;;10.73;7.25;;;20.00;99.90;;;;;;5105053;28;20032;-65
2022/07/19 04:59:39;;;;;;;10.52;7.22;;;20.00;99.90;;;;;;5101659;28;20078;-65
2022/07/19 05:02:05;;;;;;;12.35;7.50;;;20.10;99.90;;;;;;5105949;28;20093;-66
2022/07/19 05:04:31;;;;;;;10.88;7.03;;;20.20;99.90;;;;;;5099328;28;20032;-66
2022/07/19 05:06:56;;;;;;;11.18;7.88;;;20.30;99.90;;;;;;5106854;28;20414;-65
2022/07/19 05:09:24;;;;;;;9.82;7.03;;;20.40;99.90;;;;;;5109242;28;20141;-64
2022/07/19 05:11:50;;;;;;;12.52;7.68;;;20.50;99.90;;;;;;5107878;28;20035;-63
2022/07/19 05:14:15;;;;;;;12.13;7.38;;;20.60;99.90;;;;;;5105096;28;20039;-64
2022/07/19 05:16:42;;;;;;;11.15;7.53;;;20.70;99.90;;;;;;5103990;28;20047;-64
2022/07/19 05:19:07;;;;;;;9.95;7.35;;;20.80;99.90;;;;;;5103592;28;20043;-64
2022/07/19 05:21:33;;;;;;;12.35;7.40;;;20.90;99.90;;;;;;5104763;28;20055;-64
2022/07/19 05:23:58;;;;;;;10.18;7.35;;;21.10;99.90;;;;;;5100986;28;20151;-64
2022/07/19 05:26:24;;;;;;;9.50;7.47;;;21.20;99.90;;;;;;5102164;28;20156;-64
2022/07/19 05:28:49;;;;;;;13.07;7.63;;;21.30;99.90;;;;;;5104549;28;20051;-64
2022/07/19 05:31:15;;;;;;;11.20;7.32;;;21.50;99.90;;;;;;5104393;28;20047;-64
2022/07/19 05:33:41;;;;;;;10.52;7.43;;;21.70;99.90;;;;;;5104383;28;20032;-64
2022/07/19 05:36:10;;;;;;;9.82;7.40;;;21.80;99.90;;;;;;5102357;28;20490;-64
2022/07/19 05:38:39;;;;;;;9.98;7.40;;;21.90;99.90;;;;;;5106321;28;20048;-65
2022/07/19 05:41:10;;;;;;;10.07;7.25;;;22.00;99.90;;;;;;5106517;28;20481;-65
2022/07/19 05:43:37;;;;;;;11.88;7.40;;;22.20;99.60;;;;;;5105253;28;20470;-65
2022/07/19 05:46:04;;;;;;;10.98;7.50;;;22.30;99.30;;;;;;5107527;28;20043;-66
2022/07/19 05:48:29;;;;;;;10.00;7.53;;;22.40;99.00;;;;;;5107300;28;20046;-65
2022/07/19 05:50:56;;;;;;;10.27;7.40;;;22.60;98.90;;;;;;5108135;28;20410;-65
2022/07/19 05:53:21;;;;;;;14.40;8.02;;;22.70;98.60;;;;;;5107438;28;20134;-65
2022/07/19 05:55:47;;;;;;;10.77;7.60;;;22.80;98.40;;;;;;5105382;28;20131;-65
2022/07/19 05:58:13;;;;;;;12.52;7.65;;;22.90;98.00;;;;;;5103139;28;20036;-64
2022/07/19 06:01:17;;;;;;;11.40;7.75;;;23.00;97.90;;;;;;5104650;28;20047;-64
2022/07/19 06:03:24;;;;;;;10.45;7.35;;;23.10;97.70;;;;;;5111085;28;20052;-64
2022/07/19 06:05:50;;;;;;;10.48;6.93;;;23.20;97.70;;;;;;5112102;28;20045;-64
2022/07/19 06:08:15;;;;;;;9.80;7.03;;;23.20;97.60;;;;;;5109964;28;20062;-64
2022/07/19 06:10:41;;;;;;;11.23;6.88;;;23.30;97.40;;;;;;5110159;28;20046;-64
2022/07/19 06:13:07;;;;;;;10.45;7.25;;;23.40;97.20;;;;;;5110979;28;20138;-64
2022/07/19 06:15:32;;;;;;;10.27;6.68;;;23.40;96.90;;;;;;5110098;28;20096;-64
2022/07/19 06:17:58;;;;;;;10.30;7.03;;;23.60;96.60;;;;;;5110474;28;20108;-64
2022/07/19 06:20:23;;;;;;;10.88;7.10;;;23.70;96.70;;;;;;5110904;28;20055;-65
2022/07/19 06:22:49;;;;;;;9.63;6.93;;;23.80;96.70;;;;;;5108978;28;20048;-64
2022/07/19 06:25:14;;;;;;;11.88;6.85;;;23.90;96.50;;;;;;5111286;28;20047;-64
2022/07/19 06:27:40;;;;;;;10.65;6.95;;;24.00;96.20;;;;;;5110637;28;20043;-65
2022/07/19 06:30:06;;;;;;;10.05;6.53;;;24.10;95.60;;;;;;5109347;28;20075;-64
2022/07/19 06:32:31;;;;;;;9.30;6.28;;;24.20;95.30;;;;;;5110712;28;20039;-65
2022/07/19 06:34:57;;;;;;;9.32;6.00;;;24.40;95.40;;;;;;5109482;28;20122;-64
2022/07/19 06:37:22;;;;;;;13.25;6.18;;;24.40;95.30;;;;;;5109331;28;20088;-64
2022/07/19 06:39:48;;;;;;;9.18;6.22;;;24.60;95.10;;;;;;5110408;28;20405;-65
2022/07/19 06:42:13;;;;;;;9.73;6.63;;;24.70;95.00;;;;;;5109571;28;20052;-64
2022/07/19 06:44:39;;;;;;;9.15;6.43;;;24.80;94.60;;;;;;5111087;28;20051;-64
2022/07/19 06:47:04;;;;;;;8.25;5.50;;;24.80;94.20;;;;;;5109277;28;20058;-64
2022/07/19 06:49:30;;;;;;;10.35;6.47;;;25.00;94.40;;;;;;5109970;28;20097;-64
2022/07/19 06:51:56;;;;;;;9.55;5.93;;;25.10;94.20;;;;;;5107548;28;20044;-65
2022/07/19 06:54:21;;;;;;;9.73;5.30;;;25.20;93.90;;;;;;5111312;28;20070;-64
2022/07/19 06:56:47;;;;;;;9.00;5.90;;;25.40;94.30;;;;;;5109686;28;20043;-64
2022/07/19 06:59:12;;;;;;;9.73;6.13;;;25.50;93.90;;;;;;5110643;28;20130;-65
2022/07/19 07:01:38;;;;;;;11.20;6.28;;;25.60;94.00;;;;;;5109508;28;20043;-65
2022/07/19 07:04:03;;;;;;;8.95;5.57;;;25.70;93.60;;;;;;5108772;28;20149;-65
2022/07/19 07:06:29;;;;;;;9.00;5.60;;;25.70;93.30;;;;;;5109380;28;20066;-65
2022/07/19 07:08:54;;;;;;;10.65;5.65;;;25.90;93.20;;;;;;5109992;28;20040;-65
2022/07/19 07:11:20;;;;;;;8.82;5.97;;;26.00;93.00;;;;;;5109622;28;20043;-65
2022/07/19 07:13:46;;;;;;;7.25;5.38;;;26.10;92.60;;;;;;5109557;28;20135;-65
2022/07/19 07:16:11;;;;;;;9.63;5.75;;;26.20;92.50;;;;;;5109159;28;20039;-65
2022/07/19 07:18:37;;;;;;;8.88;4.70;;;26.30;92.50;;;;;;5109056;28;20071;-65
2022/07/19 07:21:02;;;;;;;10.38;5.40;;;26.40;92.30;;;;;;5109556;28;20079;-65
2022/07/19 07:23:28;;;;;;;8.25;4.72;;;26.60;92.30;;;;;;5110595;28;20051;-65
2022/07/19 07:25:54;;;;;;;7.95;4.20;;;26.70;92.20;;;;;;5108868;28;20067;-65
2022/07/19 07:28:19;;;;;;;8.93;4.68;;;26.80;91.80;;;;;;5109039;28;20039;-65
2022/07/19 07:30:45;;;;;;;7.32;4.75;;;27.00;91.50;;;;;;5109299;28;20048;-65
2022/07/19 07:33:10;;;;;;;7.72;4.53;;;27.20;91.40;;;;;;5107976;28;20389;-65
2022/07/19 07:35:36;;;;;;;8.05;3.83;;;27.30;90.90;;;;;;5109732;28;20632;-65
2022/07/19 07:38:01;;;;;;;6.25;3.50;;;27.40;90.30;;;;;;5109605;28;20383;-65
2022/07/19 07:40:27;;;;;;;7.85;4.07;;;27.50;89.00;;;;;;5108992;28;20178;-65
2022/07/19 07:42:53;;;;;;;6.80;3.47;;;27.70;87.90;;;;;;5109783;28;20210;-65
2022/07/19 07:45:18;;;;;;;9.80;4.05;;;27.80;88.10;;;;;;5107465;28;20048;-65
2022/07/19 07:47:44;;;;;;;5.80;3.35;;;28.00;87.30;;;;;;5108761;28;20044;-65
2022/07/19 07:50:09;;;;;;;8.38;3.75;;;28.20;87.20;;;;;;5109148;28;20390;-65
2022/07/19 07:52:35;;;;;;;8.18;3.95;;;28.20;86.90;;;;;;5108546;28;20150;-65
2022/07/19 07:55:01;;;;;;;7.90;3.97;;;28.30;86.30;;;;;;5109318;28;20032;-65
2022/07/19 07:57:27;;;;;;;7.63;3.75;;;28.40;85.10;;;;;;5109085;28;20122;-65
2022/07/19 07:59:52;;;;;;;7.75;3.72;;;28.50;84.90;;;;;;5107991;28;20159;-65
2022/07/19 08:02:19;;;;;;;5.88;3.33;;;28.60;84.70;;;;;;5108358;28;20044;-65
2022/07/19 08:04:45;;;;;;;6.07;3.25;;;28.80;84.60;;;;;;5109097;28;20079;-65
2022/07/19 08:07:10;;;;;;;9.73;3.80;;;28.90;84.00;;;;;;5107635;28;20451;-65
2022/07/19 08:09:36;;;;;;;7.72;3.67;;;29.00;83.30;;;;;;5109904;28;20039;-65
2022/07/19 08:12:01;;;;;;;10.10;3.20;;;29.00;81.90;;;;;;5107710;28;20516;-65
2022/07/19 08:14:28;;;;;;;6.70;2.97;;;29.10;81.30;;;;;;5108311;28;20039;-65
2022/07/19 08:16:54;;;;;;;8.00;3.42;;;29.20;80.10;;;;;;5107338;28;20085;-65
2022/07/19 08:19:19;;;;;;;5.95;3.00;;;29.30;80.50;;;;;;5108502;28;20051;-65
2022/07/19 08:21:45;;;;;;;7.13;3.03;;;29.40;79.80;;;;;;5107890;28;20083;-65
2022/07/19 08:24:11;;;;;;;7.30;2.90;;;29.50;79.50;;;;;;5108404;28;20063;-65
2022/07/19 08:26:36;;;;;;;7.50;2.85;;;29.50;79.30;;;;;;5107736;28;20027;-65
2022/07/19 08:29:02;;;;;;;5.30;3.00;;;29.60;79.20;;;;;;5107362;28;20051;-65
2022/07/19 08:31:27;;;;;;;6.75;3.20;;;29.70;77.90;;;;;;5107382;28;20067;-65
2022/07/19 08:33:53;;;;;;;7.07;3.08;;;29.80;78.00;;;;;;5108472;28;20043;-65
2022/07/19 08:36:18;;;;;;;6.63;2.50;;;29.90;78.50;;;;;;5106971;28;20371;-65
2022/07/19 08:38:45;;;;;;;5.80;2.80;;;30.00;79.20;;;;;;5108896;28;20040;-65
2022/07/19 08:41:13;;;;;;;6.85;2.65;;;30.10;77.90;;;;;;5106420;28;20048;-65
2022/07/19 08:43:39;;;;;;;6.25;2.40;;;30.20;77.40;;;;;;5108209;28;20079;-65
2022/07/19 08:46:05;;;;;;;5.90;2.30;;;30.30;77.50;;;;;;5107089;28;20082;-65
2022/07/19 08:48:35;;;;;;;5.97;2.45;;;30.40;76.20;;;;;;5107110;28;20126;-66
2022/07/19 08:51:01;;;;;;;4.90;2.60;;;30.60;75.50;;;;;;5105971;28;20082;-65
2022/07/19 08:53:32;;;;;;;4.45;2.15;;;30.60;75.30;;;;;;5108598;28;20482;-66
2022/07/19 08:55:59;;;;;;;4.40;2.25;;;30.70;74.30;;;;;;5106900;28;20033;-66
2022/07/19 08:58:25;;;;;;;6.07;2.50;;;30.80;74.10;;;;;;5107988;28;20503;-65
2022/07/19 09:00:51;;;;;;;6.38;2.20;;;30.90;73.10;;;;;;5107756;28;20130;-65
2022/07/19 09:03:17;;;;;;;6.97;2.33;;;30.90;72.10;;;;;;5106295;28;20172;-65
2022/07/19 09:05:43;;;;;;;4.63;2.10;;;31.00;71.50;;;;;;5107904;28;20071;-65
2022/07/19 09:08:10;;;;;;;4.75;2.30;;;31.10;69.90;;;;;;5108041;28;20152;-65
2022/07/19 09:10:42;;;;;;;6.75;2.13;;;31.20;69.40;;;;;;5107589;28;20047;-65
2022/07/19 09:13:13;;;;;;;4.22;1.90;;;31.20;69.00;;;;;;5106068;28;20043;-66
2022/07/19 09:15:55;;;;;;;5.80;2.20;;;31.30;68.80;;;;;;5107794;28;20074;-66
2022/07/19 09:18:22;;;;;;;5.60;2.00;;;31.40;67.40;;;;;;5107123;28;20047;-65
2022/07/19 09:20:51;;;;;;;7.53;2.20;;;31.50;67.10;;;;;;5107604;28;20150;-66
2022/07/19 09:23:18;;;;;;;5.30;1.95;;;31.50;67.20;;;;;;5107806;28;20078;-65
2022/07/19 09:25:46;;;;;;;4.50;2.00;;;31.70;66.70;;;;;;5107415;28;20035;-66
2022/07/19 09:28:12;;;;;;;3.88;2.00;;;31.70;65.30;;;;;;5106748;28;20036;-66
2022/07/19 09:30:49;;;;;;;5.57;2.15;;;31.70;64.30;;;;;;5107414;28;20473;-65
2022/07/19 09:33:21;;;;;;;7.63;2.00;;;31.90;64.00;;;;;;5107341;28;20055;-65
2022/07/19 09:35:56;;;;;;;4.80;2.08;;;31.90;64.10;;;;;;5108411;28;20486;-66
2022/07/19 09:38:35;;;;;;;5.05;2.00;;;32.00;63.70;;;;;;5112141;28;20036;-66
2022/07/19 09:41:06;;;;;;;4.90;2.10;;;32.10;62.30;;;;;;5110858;28;20039;-65
2022/07/19 09:43:48;;;;;;;6.00;2.20;;;32.20;62.90;;;;;;5112062;28;20460;-65
2022/07/19 09:46:29;;;;;;;6.90;2.10;;;32.20;62.50;;;;;;5110393;27;20100;-66
2022/07/19 09:49:12;;;;;;;5.43;2.20;;;32.30;62.10;;;;;;5111268;28;20072;-66
2022/07/19 09:51:47;;;;;;;6.80;2.40;;;32.40;61.20;;;;;;5111557;28;20100;-66
2022/07/19 09:54:15;;;;;;;4.15;1.90;;;32.40;61.30;;;;;;5112006;28;20051;-65
2022/07/19 09:56:43;;;;;;;6.03;2.28;;;32.50;60.80;;;;;;5111245;28;20035;-66
2022/07/19 09:59:09;;;;;;;5.90;2.03;;;32.50;60.30;;;;;;5110979;28;20051;-65
2022/07/19 10:01:37;;;;;;;6.40;2.30;;;32.50;59.60;;;;;;5110364;28;20036;-66
2022/07/19 10:04:08;;;;;;;5.38;2.30;;;32.60;58.60;;;;;;5111441;28;20047;-66
2022/07/19 10:06:34;;;;;;;4.50;1.90;;;32.70;59.10;;;;;;5091728;28;20053;-66
2022/07/19 10:09:01;;;;;;;4.53;1.90;;;32.70;59.00;;;;;;5111036;28;20040;-65
2022/07/19 10:11:30;;;;;;;5.00;2.00;;;32.80;58.80;;;;;;5110581;28;20047;-65
2022/07/19 10:13:56;;;;;;;5.57;2.20;;;32.90;56.60;;;;;;5110540;28;20054;-66
2022/07/19 10:16:45;;;;;;;3.95;2.00;;;32.90;56.80;;;;;;5109180;28;20039;-65
2022/07/19 10:19:21;;;;;;;5.82;2.15;;;33.00;56.80;;;;;;5111066;28;20100;-66
2022/07/19 10:21:48;;;;;;;5.03;2.45;;;33.00;56.20;;;;;;5109901;28;20090;-66
2022/07/19 10:24:14;;;;;;;5.97;2.10;;;33.10;56.10;;;;;;5111929;28;20223;-66
2022/07/19 10:26:41;;;;;;;4.68;2.28;;;33.20;55.70;;;;;;5110357;28;20559;-65
2022/07/19 10:29:08;;;;;;;6.15;1.90;;;33.20;55.90;;;;;;5110091;28;20062;-66
2022/07/19 10:31:35;;;;;;;6.28;1.92;;;33.30;55.90;;;;;;5109995;28;20198;-66
2022/07/19 10:34:07;;;;;;;4.40;1.90;;;33.30;55.00;;;;;;5109855;28;20067;-66
2022/07/19 10:36:49;;;;;;;6.35;2.20;;;33.40;55.10;;;;;;5110743;28;20043;-66
2022/07/19 10:39:17;;;;;;;5.30;1.80;;;33.50;56.70;;;;;;5111639;28;20055;-66
2022/07/19 10:42:11;;;;;;;5.40;1.90;;;33.60;55.50;;;;;;5109520;28;20394;-66
2022/07/19 10:44:55;;;;;;;4.35;1.95;;;33.70;54.40;;;;;;5110764;28;20409;-66
2022/07/19 10:47:21;;;;;;;4.72;1.73;;;33.70;54.80;;;;;;5108807;28;20108;-66
2022/07/19 10:49:48;;;;;;;4.88;1.80;;;33.80;53.90;;;;;;5109997;28;20482;-66
2022/07/19 10:52:29;;;;;;;5.93;1.95;;;33.80;53.40;;;;;;5109108;28;20155;-65
2022/07/19 10:55:20;;;;;;;6.15;2.10;;;33.80;53.60;;;;;;5110444;27;20434;-66
2022/07/19 10:57:51;;;;;;;5.68;2.05;;;33.90;53.80;;;;;;5090175;28;20044;-65
2022/07/19 11:00:22;;;;;;;5.32;2.13;;;34.00;52.60;;;;;;5089377;28;20044;-66
2022/07/19 11:02:50;;;;;;;6.47;1.90;;;34.00;52.80;;;;;;5088754;28;20110;-66
2022/07/19 11:05:26;;;;;;;7.03;2.10;;;34.00;54.00;;;;;;5089803;28;20477;-66
2022/07/19 11:07:54;;;;;;;3.95;1.85;;;34.10;53.40;;;;;;5090108;28;20127;-66
2022/07/19 11:10:24;;;;;;;7.18;2.25;;;34.20;52.20;;;;;;5093061;28;20183;-66
2022/07/19 11:12:50;;;;;;;6.35;1.95;;;34.20;51.10;;;;;;5110045;28;20040;-66
2022/07/19 11:15:16;;;;;;;3.85;1.90;;;34.20;50.60;;;;;;5109258;28;20047;-67
2022/07/19 11:17:57;;;;;;;6.45;1.80;;;34.20;50.30;;;;;;5109060;28;20710;-64
2022/07/19 11:20:24;;;;;;;5.22;1.80;;;34.30;50.90;;;;;;5109869;28;20089;-64
2022/07/19 11:22:50;;;;;;;3.63;1.77;;;34.30;50.60;;;;;;5108107;28;20131;-64
2022/07/19 11:25:32;;;;;;;4.35;1.90;;;34.30;51.00;;;;;;5096537;28;20115;-64
2022/07/19 11:27:59;;;;;;;4.97;1.83;;;34.40;50.50;;;;;;5100026;28;20046;-64
2022/07/19 11:30:26;;;;;;;5.50;1.75;;;34.50;50.90;;;;;;5108499;28;20036;-64
2022/07/19 11:33:01;;;;;;;5.28;2.00;;;34.50;49.60;;;;;;5108502;28;20508;-67
2022/07/19 11:35:28;;;;;;;4.25;1.70;;;34.60;49.20;;;;;;5109092;28;20039;-67
2022/07/19 11:37:55;;;;;;;8.18;1.90;;;34.60;48.50;;;;;;5109294;28;20134;-64
2022/07/19 11:40:22;;;;;;;6.10;1.63;;;34.70;48.30;;;;;;5110057;28;20051;-64
2022/07/19 11:42:49;;;;;;;6.82;1.70;;;34.70;48.40;;;;;;5109148;28;20043;-64
2022/07/19 11:45:25;;;;;;;5.60;2.08;;;34.80;48.50;;;;;;5108127;28;20119;-65
2022/07/19 11:47:53;;;;;;;5.22;1.88;;;34.80;49.10;;;;;;5108652;28;20040;-65
2022/07/19 11:50:21;;;;;;;4.53;1.75;;;34.90;47.70;;;;;;5107651;28;20549;-65
2022/07/19 11:52:55;;;;;;;4.53;1.83;;;35.00;47.70;;;;;;5108319;28;20047;-65
2022/07/19 11:55:33;;;;;;;4.35;1.70;;;35.00;47.70;;;;;;5109960;28;20048;-64
2022/07/19 11:57:59;;;;;;;4.35;1.95;;;35.10;47.60;;;;;;5108718;28;20040;-64
2022/07/19 12:00:24;;;;;;;6.05;1.52;;;35.10;47.00;;;;;;5107885;28;20043;-65
2022/07/19 12:02:57;;;;;;;3.60;1.70;;;35.10;47.20;;;;;;5109646;28;20047;-65
2022/07/19 12:05:24;;;;;;;5.18;1.80;;;35.10;47.30;;;;;;5106357;28;20096;-65
2022/07/19 12:07:50;;;;;;;4.82;2.05;;;35.10;47.00;;;;;;5108850;28;20052;-64
2022/07/19 12:10:36;;;;;;;3.85;1.70;;;35.30;47.70;;;;;;5109267;28;20096;-65
2022/07/19 12:13:03;;;;;;;4.78;1.80;;;35.40;46.00;;;;;;5109720;28;20229;-65
2022/07/19 12:15:47;;;;;;;4.40;1.73;;;35.40;47.20;;;;;;5108684;28;20043;-64
2022/07/19 12:18:13;;;;;;;;;;;35.50;46.00;;;;;;5107947;28;20378;-65
2022/07/19 12:20:39;;;;;;;6.40;2.10;;;35.50;45.50;;;;;;5106076;28;19938;-64
2022/07/19 12:23:23;;;;;;;5.78;1.92;;;35.60;46.50;;;;;;5108178;28;20047;-65
2022/07/19 12:25:49;;;;;;;5.55;1.95;;;35.60;45.00;;;;;;5108697;27;20074;-64
2022/07/19 12:28:14;;;;;;;6.38;1.90;;;35.60;45.30;;;;;;5108137;28;20111;-65
2022/07/19 12:30:40;;;;;;;6.75;1.63;;;35.60;43.90;;;;;;5107919;28;20051;-64
2022/07/19 12:33:11;;;;;;;4.28;1.98;;;35.60;43.10;;;;;;5106493;28;20523;-64
2022/07/19 12:35:42;;;;;;;4.32;1.60;;;35.70;42.70;;;;;;5107425;28;20221;-64
2022/07/19 12:38:09;;;;;;;3.53;1.60;;;35.70;43.50;;;;;;5108255;28;20387;-65
2022/07/19 12:40:34;;;;;;;4.38;1.77;;;35.80;44.10;;;;;;5088276;28;20044;-65
2022/07/19 12:43:03;;;;;;;6.78;1.52;;;35.80;43.10;;;;;;5087650;28;20047;-65
2022/07/19 12:45:39;;;;;;;4.38;1.50;;;35.90;42.70;;;;;;5087678;28;20040;-65